Apartado, Colombia

5:20 PM COT on October 01, 2014 (GMT -0500)
Antonio Roldan Betancourt | Change Station
CLOSE
Current Station
Airport
Location: Apartado,
Elevation: 66 ft
Nearby Weather Stations

Elev 66 ft 7.82 °N, 76.72 °W | Updated 20 minutes ago

Mostly Cloudy
Mostly Cloudy
86 °F
Feels Like 97 °F
N
0
Wind Variable Wind from North

Today
High -- | Low -- °F
--% Chance of Precip.
Yesterday
High -- | Low -- °F
Precip. -- in
5:54 AM 5:57 PM
First Quarter, 51% visible
Pressure 29.73 in
Visibility 6.2 miles
Clouds Few 2000 ft
Mostly Cloudy 20000 ft
Heat Index 97 °F
Dew Point 77 °F
Humidity 74%
Rainfall 0.00 in
Snow Depth Not available.
UV 1 out of 12
Pollen Not available.
Air Quality Not available.
Flu Activity Not available.
METAR SKLC 012200Z 00000KT 9999 FEW020 BKN200 30/25 A2973 RETS

More Conditions Fewer Conditions

Pressure 29.73 in
Visibility 6.2 miles
Clouds Few 2000 ft
Mostly Cloudy 20000 ft
Heat Index 97 °F
Dew Point 77 °F
Humidity 74%
Rainfall 0.00 in
Snow Depth Not available.
UV 1 out of 12
Pollen Not available.
Air Quality Not available.
Flu Activity Not available.
METAR SKLC 012200Z 00000KT 9999 FEW020 BKN200 30/25 A2973 RETS

More Conditions Fewer Conditions

10-Day Weather Forecast

Almanac

Astronomy

Oct. 01, 2014 Rise Set
Actual Time 5:54 AM COT 5:57 PM COT
Civil Twilight 5:34 AM COT 6:18 PM COT
Nautical Twilight 5:09 AM COT 6:42 PM COT
Astronomical Twilight 4:45 AM COT 7:07 PM COT
Moon 12:06 PM COT No Moon Set
Length of Visible Light 12h 44m
Length of Day
12h 02m
Tomorrow will be 0m 26s shorter.
First Quarter, 51% of the Moon is Illuminated
Today
First Quarter
Oct 8
Full
Oct 15
Last Quarter
Oct 23
New
Oct 30
First Quarter

Today's Extremes

Country Highs Country Lows

Community

WunderPhotos

Upload Photos

1,758,058 photos uploaded!

WunderBlogs® & News

By Dr. Jeff Masters
Director of Meteorology, Weather Underground
By Kari Strenfel
Meteorologist, Weather Underground
By Christopher C. Burt
Weather Historian, Weather Underground
October 1, 2014
October 1, 2014
October 1, 2014

Nearby

Snow Depth

Not available.

Earthquake Activity

City Distance Mag. Time & Date
No recent earthquake activity has been reported nearby.
Minimum magnitude displayed is 2.5.

Coastal Water Temperatures

Place Temperature
No Stations Reporting

Nearby Weather Stations